createdAt,value
2023-05-23T00:00:15.713Z,99.90
2023-05-23T00:02:48.758Z,99.90
2023-05-23T00:05:19.278Z,99.90
2023-05-23T00:07:49.641Z,99.90
2023-05-23T00:10:20.013Z,99.90
2023-05-23T00:12:50.194Z,99.90
2023-05-23T00:15:20.391Z,99.90
2023-05-23T00:17:53.565Z,99.90
2023-05-23T00:20:23.945Z,99.90
2023-05-23T00:22:54.798Z,99.90
2023-05-23T00:25:24.844Z,99.90
2023-05-23T00:27:55.002Z,99.90
2023-05-23T00:30:25.126Z,99.90
2023-05-23T00:32:59.267Z,99.90
2023-05-23T00:35:30.002Z,99.90
2023-05-23T00:38:00.232Z,99.90
2023-05-23T00:40:30.362Z,99.90
2023-05-23T00:45:31.187Z,99.90
2023-05-23T00:48:04.518Z,99.90
2023-05-23T00:50:34.742Z,99.90
2023-05-23T00:53:05.076Z,99.90
2023-05-23T00:55:36.017Z,99.90
2023-05-23T00:58:06.040Z,99.90
2023-05-23T01:00:38.788Z,99.90
2023-05-23T01:03:17.163Z,99.90
2023-05-23T01:08:18.484Z,99.90
2023-05-23T01:10:48.622Z,99.90
2023-05-23T01:13:25.229Z,99.90
2023-05-23T01:16:03.158Z,99.90
2023-05-23T01:18:41.654Z,99.90
2023-05-23T01:21:18.854Z,99.90
2023-05-23T01:24:29.362Z,99.90
2023-05-23T01:27:12.009Z,99.90
2023-05-23T01:29:48.420Z,99.90
2023-05-23T01:32:23.141Z,99.90
2023-05-23T01:34:56.686Z,99.90
2023-05-23T01:37:26.836Z,99.90
2023-05-23T01:39:57.023Z,99.90
2023-05-23T01:42:28.298Z,99.90
2023-05-23T01:45:03.622Z,99.90
2023-05-23T01:47:33.836Z,99.90
2023-05-23T01:50:05.475Z,99.90
2023-05-23T01:52:36.211Z,99.90
2023-05-23T01:55:12.321Z,99.90
2023-05-23T01:57:43.002Z,99.90
2023-05-23T02:00:16.930Z,99.90
2023-05-23T02:02:47.272Z,99.90
2023-05-23T02:10:18.531Z,99.90
2023-05-23T02:12:48.964Z,99.90
2023-05-23T02:15:21.872Z,99.90
2023-05-23T02:17:52.076Z,99.90
2023-05-23T02:20:22.685Z,99.90
2023-05-23T02:22:52.822Z,99.90
2023-05-23T02:27:53.546Z,99.90
2023-05-23T02:30:26.309Z,99.90
2023-05-23T02:32:57.883Z,99.90
2023-05-23T02:37:58.481Z,99.90
2023-05-23T02:40:28.710Z,99.90
2023-05-23T02:42:59.543Z,99.90
2023-05-23T02:45:32.383Z,99.90
2023-05-23T02:48:02.557Z,99.90
2023-05-23T02:53:03.173Z,99.90
2023-05-23T02:58:06.167Z,99.90
2023-05-23T03:00:40.067Z,99.90
2023-05-23T03:03:10.398Z,99.90
2023-05-23T03:05:40.892Z,99.90
2023-05-23T03:08:11.171Z,99.90
2023-05-23T03:10:41.316Z,99.90
2023-05-23T03:13:11.467Z,99.90
2023-05-23T03:15:44.310Z,99.90
2023-05-23T03:18:14.477Z,99.90
2023-05-23T03:20:45.670Z,99.90
2023-05-23T03:23:15.784Z,99.90
2023-05-23T03:25:46.770Z,99.90
2023-05-23T03:28:16.666Z,99.90
2023-05-23T03:30:49.506Z,99.90
2023-05-23T03:35:50.325Z,99.90
2023-05-23T03:38:20.570Z,99.90
2023-05-23T03:40:50.824Z,99.90
2023-05-23T03:43:20.955Z,99.90
2023-05-23T03:45:53.868Z,99.90
2023-05-23T03:48:24.013Z,99.90
2023-05-23T03:50:54.419Z,99.90
2023-05-23T03:53:24.552Z,99.90
2023-05-23T03:55:54.694Z,99.90
2023-05-23T03:58:24.828Z,99.90
2023-05-23T04:00:59.102Z,99.90
2023-05-23T04:03:33.015Z,99.90
2023-05-23T04:06:03.809Z,99.90
2023-05-23T04:08:34.182Z,99.90
2023-05-23T04:11:04.360Z,99.90
2023-05-23T04:13:34.472Z,99.90
2023-05-23T04:16:07.862Z,99.90
2023-05-23T04:18:39.449Z,99.90
2023-05-23T04:21:10.134Z,99.90
2023-05-23T04:23:40.261Z,99.90
2023-05-23T04:26:10.478Z,99.90
2023-05-23T04:28:40.632Z,99.90
2023-05-23T04:31:14.083Z,99.90
2023-05-23T04:33:44.404Z,99.90
2023-05-23T04:36:14.547Z,99.90
2023-05-23T04:38:44.761Z,99.90
2023-05-23T04:41:16.645Z,99.90
2023-05-23T04:43:46.844Z,99.90
2023-05-23T04:46:19.631Z,99.90
2023-05-23T04:48:50.848Z,99.90
2023-05-23T04:51:21.939Z,99.90
2023-05-23T04:53:53.447Z,99.90
2023-05-23T04:56:28.512Z,99.90
2023-05-23T05:01:33.056Z,99.90
2023-05-23T05:04:05.618Z,99.90
2023-05-23T05:06:36.180Z,99.90
2023-05-23T05:09:06.313Z,99.90
2023-05-23T05:11:36.497Z,99.90
2023-05-23T05:19:10.204Z,99.90
2023-05-23T05:21:40.449Z,99.90
2023-05-23T05:24:11.355Z,99.90
2023-05-23T05:26:41.439Z,99.90
2023-05-23T05:29:11.595Z,99.90
2023-05-23T05:31:45.506Z,99.90
2023-05-23T05:34:16.135Z,99.90
2023-05-23T05:36:48.395Z,99.90
2023-05-23T05:39:18.665Z,99.90
2023-05-23T05:41:48.839Z,99.90
2023-05-23T05:44:19.025Z,99.90
2023-05-23T05:46:52.014Z,99.90
2023-05-23T05:49:22.549Z,99.90
2023-05-23T05:51:52.925Z,99.90
2023-05-23T05:54:23.143Z,99.90
2023-05-23T05:56:53.334Z,99.90
2023-05-23T05:59:23.474Z,99.90
2023-05-23T06:01:56.736Z,99.90
2023-05-23T06:04:26.899Z,99.90
2023-05-23T06:11:57.826Z,99.90
2023-05-23T06:14:28.027Z,99.90
2023-05-23T06:17:01.080Z,99.90
2023-05-23T06:19:31.252Z,99.90
2023-05-23T06:22:01.412Z,99.90
2023-05-23T06:27:02.976Z,99.90
2023-05-23T06:29:33.634Z,99.90
2023-05-23T06:32:06.316Z,99.90
2023-05-23T06:37:06.979Z,99.90
2023-05-23T06:39:37.147Z,99.90
2023-05-23T06:44:37.976Z,99.90
2023-05-23T06:47:10.988Z,99.90
2023-05-23T06:49:41.128Z,99.90
2023-05-23T06:52:11.371Z,99.20
2023-05-23T06:54:41.639Z,99.60
2023-05-23T06:57:11.883Z,99.90
2023-05-23T06:59:42.034Z,99.90
2023-05-23T07:02:14.852Z,99.90
2023-05-23T07:07:15.398Z,99.90
2023-05-23T07:09:45.632Z,99.90
2023-05-23T07:12:16.298Z,99.90
2023-05-23T07:17:19.568Z,99.90
2023-05-23T07:19:49.754Z,99.90
2023-05-23T07:22:19.972Z,99.90
2023-05-23T07:24:50.100Z,99.90
2023-05-23T07:29:51.093Z,99.40
2023-05-23T07:32:23.938Z,98.40
2023-05-23T07:34:54.085Z,99.10
2023-05-23T07:37:24.348Z,99.80
2023-05-23T07:44:55.318Z,99.90
2023-05-23T07:47:28.477Z,99.90
2023-05-23T07:52:29.242Z,99.90
2023-05-23T07:54:59.460Z,99.90
2023-05-23T07:57:29.818Z,99.90
2023-05-23T08:00:00.023Z,99.90
2023-05-23T08:02:32.957Z,99.90
2023-05-23T08:07:33.772Z,99.90
2023-05-23T08:10:03.926Z,99.90
2023-05-23T08:15:04.623Z,99.90
2023-05-23T08:17:37.667Z,99.90
2023-05-23T08:20:10.400Z,99.90
2023-05-23T08:22:40.617Z,99.90
2023-05-23T08:25:11.510Z,99.90
2023-05-23T08:27:41.705Z,99.90
2023-05-23T08:30:13.854Z,99.90
2023-05-23T08:35:17.136Z,99.90
2023-05-23T08:37:48.364Z,99.90
2023-05-23T08:40:22.899Z,99.90
2023-05-23T08:42:53.852Z,99.90
2023-05-23T08:45:23.944Z,99.90
2023-05-23T08:47:58.633Z,99.90
2023-05-23T08:50:31.275Z,99.90
2023-05-23T08:53:02.564Z,99.90
2023-05-23T08:58:03.914Z,97.10
2023-05-23T09:00:35.227Z,96.90
2023-05-23T09:03:08.329Z,93.30
2023-05-23T09:05:38.682Z,93.50
2023-05-23T09:08:09.621Z,92.70
2023-05-23T09:10:40.618Z,91.60
2023-05-23T09:13:11.068Z,89.00
2023-05-23T09:15:41.231Z,87.60
2023-05-23T09:18:14.741Z,88.80
2023-05-23T09:20:47.023Z,87.40
2023-05-23T09:23:17.230Z,90.40
2023-05-23T09:25:50.485Z,80.80
2023-05-23T09:28:21.056Z,75.40
2023-05-23T09:30:51.193Z,72.40
2023-05-23T09:33:24.024Z,65.50
2023-05-23T09:35:54.123Z,67.90
2023-05-23T09:38:24.346Z,69.30
2023-05-23T09:40:59.092Z,70.70
2023-05-23T09:43:29.308Z,70.50
2023-05-23T09:46:03.631Z,66.10
2023-05-23T09:48:36.521Z,66.00
2023-05-23T09:51:12.662Z,65.40
2023-05-23T09:53:42.979Z,65.50
2023-05-23T09:56:15.734Z,67.10
2023-05-23T09:58:49.847Z,66.70
2023-05-23T10:01:20.632Z,58.80
2023-05-23T10:04:00.044Z,63.00
2023-05-23T10:06:34.990Z,60.70
2023-05-23T10:09:08.439Z,66.50
2023-05-23T10:12:19.058Z,66.10
2023-05-23T10:14:55.195Z,62.20
2023-05-23T10:17:29.922Z,59.50
2023-05-23T10:20:08.721Z,60.80
2023-05-23T10:22:39.950Z,61.20
2023-05-23T10:25:11.369Z,62.20
2023-05-23T10:30:13.808Z,59.90
2023-05-23T10:32:45.295Z,61.20
2023-05-23T10:35:26.171Z,62.00
2023-05-23T10:38:02.900Z,60.30
2023-05-23T10:40:37.580Z,58.40
2023-05-23T10:43:15.421Z,54.30
2023-05-23T10:45:50.005Z,55.00
2023-05-23T10:51:09.472Z,55.00
2023-05-23T10:53:40.494Z,56.70
2023-05-23T10:56:11.460Z,57.30
2023-05-23T10:58:42.799Z,56.80
2023-05-23T11:01:17.073Z,55.80
2023-05-23T11:03:55.689Z,53.30
2023-05-23T11:06:41.817Z,55.00
2023-05-23T11:09:18.947Z,54.80
2023-05-23T11:11:58.280Z,55.70
2023-05-23T11:14:38.278Z,54.70
2023-05-23T11:17:20.301Z,53.10
2023-05-23T11:20:01.658Z,53.20
2023-05-23T11:22:34.763Z,52.50
2023-05-23T11:25:09.461Z,54.60
2023-05-23T11:27:41.661Z,56.00
2023-05-23T11:30:14.410Z,56.30
2023-05-23T11:32:46.023Z,55.90
2023-05-23T11:35:16.234Z,58.20
2023-05-23T11:43:00.462Z,57.30
2023-05-23T11:45:32.343Z,59.10
2023-05-23T11:48:07.542Z,59.70
2023-05-23T11:50:45.268Z,58.70
2023-05-23T11:53:21.144Z,59.70
2023-05-23T11:55:56.309Z,57.80
2023-05-23T11:58:30.564Z,59.00
2023-05-23T12:03:35.406Z,59.70
2023-05-23T12:06:05.906Z,59.40
2023-05-23T12:08:38.742Z,61.10
2023-05-23T12:11:12.128Z,58.90
2023-05-23T12:13:45.174Z,60.20
2023-05-23T12:16:17.626Z,59.20
2023-05-23T12:18:47.901Z,61.30
2023-05-23T12:21:18.205Z,58.90
2023-05-23T12:23:50.929Z,59.50
2023-05-23T12:26:22.409Z,60.30
2023-05-23T12:31:24.660Z,59.60
2023-05-23T12:33:58.728Z,59.90
2023-05-23T12:36:32.536Z,58.70
2023-05-23T12:39:09.399Z,58.80
2023-05-23T12:41:39.545Z,60.90
2023-05-23T12:44:09.768Z,61.60
2023-05-23T12:49:10.984Z,61.90
2023-05-23T12:51:41.165Z,61.30
2023-05-23T12:54:14.673Z,60.60
2023-05-23T12:56:44.970Z,61.40
2023-05-23T12:59:15.357Z,63.00
2023-05-23T13:01:45.810Z,62.20
2023-05-23T13:04:15.820Z,60.20
2023-05-23T13:06:45.831Z,59.70
2023-05-23T13:09:18.638Z,59.70
2023-05-23T13:11:48.903Z,60.90
2023-05-23T13:16:49.285Z,61.40
2023-05-23T13:19:19.681Z,60.20
2023-05-23T13:21:50.196Z,59.90
2023-05-23T13:24:22.779Z,61.70
2023-05-23T13:26:53.042Z,61.30
2023-05-23T13:29:23.305Z,62.20
2023-05-23T13:31:54.047Z,61.00
2023-05-23T13:34:24.425Z,61.30
2023-05-23T13:36:54.573Z,62.20
2023-05-23T13:41:57.866Z,60.10
2023-05-23T13:44:28.105Z,62.40
2023-05-23T13:46:58.381Z,64.10
2023-05-23T13:49:28.640Z,64.90
2023-05-23T13:51:58.829Z,69.40
2023-05-23T13:54:31.916Z,68.00
2023-05-23T13:57:03.036Z,65.50
2023-05-23T13:59:33.301Z,65.00
2023-05-23T14:02:03.565Z,64.80
2023-05-23T14:04:33.764Z,63.90
2023-05-23T14:07:04.229Z,63.50
2023-05-23T14:09:37.078Z,62.30
2023-05-23T14:12:08.323Z,62.50
2023-05-23T14:14:38.505Z,64.40
2023-05-23T14:17:09.109Z,65.40
2023-05-23T14:19:39.314Z,67.10
2023-05-23T14:24:42.785Z,65.80
2023-05-23T14:27:12.991Z,64.90
2023-05-23T14:29:46.572Z,63.70
2023-05-23T14:32:16.929Z,63.80
2023-05-23T14:34:47.216Z,63.00
2023-05-23T14:37:17.340Z,62.60
2023-05-23T14:39:50.138Z,61.30
2023-05-23T14:42:20.291Z,62.60
2023-05-23T14:44:50.520Z,60.00
2023-05-23T14:47:20.709Z,60.00
2023-05-23T14:49:50.929Z,62.70
2023-05-23T14:54:54.039Z,61.10
2023-05-23T15:02:24.988Z,61.80
2023-05-23T15:04:55.394Z,62.70
2023-05-23T15:07:25.642Z,62.20
2023-05-23T15:09:58.509Z,63.10
2023-05-23T15:12:28.875Z,63.50
2023-05-23T15:15:04.156Z,63.70
2023-05-23T15:17:35.388Z,64.80
2023-05-23T15:20:07.276Z,64.00
2023-05-23T15:22:39.894Z,63.70
2023-05-23T15:25:13.935Z,62.40
2023-05-23T15:30:15.996Z,69.90
2023-05-23T15:35:19.523Z,63.60
2023-05-23T15:37:49.931Z,63.30
2023-05-23T15:40:23.454Z,64.00
2023-05-23T15:47:54.573Z,66.00
2023-05-23T15:50:24.868Z,64.90
2023-05-23T15:55:28.118Z,64.10
2023-05-23T15:57:58.281Z,63.80
2023-05-23T16:02:58.910Z,63.90
2023-05-23T16:05:29.106Z,62.80
2023-05-23T16:07:59.353Z,64.80
2023-05-23T16:10:32.104Z,63.80
2023-05-23T16:13:02.510Z,65.60
2023-05-23T16:15:32.713Z,62.40
2023-05-23T16:18:02.904Z,66.20
2023-05-23T16:20:35.134Z,66.90
2023-05-23T16:28:08.944Z,65.40
2023-05-23T16:30:39.277Z,64.70
2023-05-23T16:33:09.481Z,64.70
2023-05-23T16:35:39.899Z,64.50
2023-05-23T16:38:10.723Z,65.30
2023-05-23T16:40:43.385Z,64.90
2023-05-23T16:43:13.770Z,63.60
2023-05-23T16:45:44.532Z,65.10
2023-05-23T16:48:14.811Z,65.00
2023-05-23T16:55:48.873Z,63.80
2023-05-23T16:58:21.310Z,64.00
2023-05-23T17:00:52.001Z,64.80
2023-05-23T17:03:23.404Z,62.40
2023-05-23T17:08:25.464Z,64.30
2023-05-23T17:10:58.281Z,65.40
2023-05-23T17:13:28.453Z,64.20
2023-05-23T17:15:58.685Z,65.90
2023-05-23T17:20:59.970Z,65.50
2023-05-23T17:33:34.565Z,68.00
2023-05-23T17:36:04.795Z,67.70
2023-05-23T17:38:36.097Z,68.80
2023-05-23T17:41:09.080Z,68.00
2023-05-23T17:43:39.242Z,69.40
2023-05-23T17:46:09.463Z,69.80
2023-05-23T17:51:17.006Z,70.00
2023-05-23T17:53:47.242Z,69.10
2023-05-23T17:56:20.189Z,68.50
2023-05-23T17:58:50.352Z,69.50
2023-05-23T18:01:20.621Z,70.10
2023-05-23T18:03:50.930Z,70.90
2023-05-23T18:06:21.280Z,70.80
2023-05-23T18:08:51.540Z,72.10
2023-05-23T18:13:54.817Z,71.30
2023-05-23T18:16:25.236Z,71.40
2023-05-23T18:18:55.408Z,72.50
2023-05-23T18:23:56.920Z,71.80
2023-05-23T18:26:30.297Z,73.20
2023-05-23T18:34:02.959Z,72.90
2023-05-23T18:36:33.293Z,72.80
2023-05-23T18:39:04.768Z,74.50
2023-05-23T18:41:37.677Z,72.80
2023-05-23T18:44:08.003Z,73.90
2023-05-23T18:46:38.305Z,73.30
2023-05-23T18:49:08.726Z,74.50
2023-05-23T18:51:39.156Z,74.20
2023-05-23T18:54:09.498Z,74.00
2023-05-23T22:40:57.265Z,99.90
2023-05-23T22:43:30.222Z,99.90
2023-05-23T22:48:34.187Z,99.90
2023-05-23T22:51:09.923Z,99.90
2023-05-23T22:56:11.552Z,99.90
2023-05-23T23:41:29.049Z,99.90
2023-05-23T23:44:02.219Z,99.90
2023-05-23T23:46:32.836Z,99.90
2023-05-23T23:49:03.150Z,99.90
2023-05-23T23:51:33.322Z,99.90
2023-05-23T23:56:33.822Z,99.90
2023-05-23T23:59:06.927Z,99.90
